sensor_id;sensor_type;location;lat;lon;timestamp;temperature;humidity
27004;DHT22;14546;47.590;19.022;2023-07-13T01:00:20;25.70;61.80
27004;DHT22;14546;47.590;19.022;2023-07-13T01:02:48;21.50;92.80
27004;DHT22;14546;47.590;19.022;2023-07-13T01:05:16;21.10;92.70
27004;DHT22;14546;47.590;19.022;2023-07-13T01:07:43;21.10;92.80
27004;DHT22;14546;47.590;19.022;2023-07-13T01:10:12;21.00;92.90
27004;DHT22;14546;47.590;19.022;2023-07-13T01:12:38;21.00;93.30
27004;DHT22;14546;47.590;19.022;2023-07-13T01:15:05;21.00;93.10
27004;DHT22;14546;47.590;19.022;2023-07-13T01:17:33;21.00;93.20
27004;DHT22;14546;47.590;19.022;2023-07-13T01:19:59;20.90;93.20
27004;DHT22;14546;47.590;19.022;2023-07-13T01:22:26;20.90;93.30
27004;DHT22;14546;47.590;19.022;2023-07-13T01:24:53;20.90;93.30
27004;DHT22;14546;47.590;19.022;2023-07-13T01:27:25;20.80;93.40
27004;DHT22;14546;47.590;19.022;2023-07-13T01:29:51;20.80;93.40
27004;DHT22;14546;47.590;19.022;2023-07-13T01:32:21;20.80;93.40
27004;DHT22;14546;47.590;19.022;2023-07-13T01:34:53;20.70;93.40
27004;DHT22;14546;47.590;19.022;2023-07-13T01:37:22;20.70;93.60
27004;DHT22;14546;47.590;19.022;2023-07-13T01:39:49;20.60;93.60
27004;DHT22;14546;47.590;19.022;2023-07-13T01:42:14;20.60;93.60
27004;DHT22;14546;47.590;19.022;2023-07-13T01:44:41;20.60;93.70
27004;DHT22;14546;47.590;19.022;2023-07-13T01:47:07;20.60;93.80
27004;DHT22;14546;47.590;19.022;2023-07-13T01:49:32;20.60;93.90
27004;DHT22;14546;47.590;19.022;2023-07-13T01:51:58;20.50;94.00
27004;DHT22;14546;47.590;19.022;2023-07-13T01:54:24;20.50;93.90
27004;DHT22;14546;47.590;19.022;2023-07-13T01:56:49;20.50;93.90
27004;DHT22;14546;47.590;19.022;2023-07-13T01:59:15;20.40;93.90
27004;DHT22;14546;47.590;19.022;2023-07-13T02:01:40;20.40;93.90
27004;DHT22;14546;47.590;19.022;2023-07-13T02:04:06;20.40;93.90
27004;DHT22;14546;47.590;19.022;2023-07-13T02:06:33;20.30;93.90
27004;DHT22;14546;47.590;19.022;2023-07-13T02:08:59;20.30;94.00
27004;DHT22;14546;47.590;19.022;2023-07-13T02:11:24;20.30;94.10
27004;DHT22;14546;47.590;19.022;2023-07-13T02:13:51;20.20;94.20
27004;DHT22;14546;47.590;19.022;2023-07-13T02:16:17;20.20;94.20
27004;DHT22;14546;47.590;19.022;2023-07-13T02:18:43;20.20;94.30
27004;DHT22;14546;47.590;19.022;2023-07-13T02:21:09;20.20;94.40
27004;DHT22;14546;47.590;19.022;2023-07-13T02:23:35;20.20;94.50
27004;DHT22;14546;47.590;19.022;2023-07-13T02:26:03;20.20;94.70
27004;DHT22;14546;47.590;19.022;2023-07-13T02:28:29;20.20;94.80
27004;DHT22;14546;47.590;19.022;2023-07-13T02:30:54;20.20;94.90
27004;DHT22;14546;47.590;19.022;2023-07-13T02:33:21;20.20;95.00
27004;DHT22;14546;47.590;19.022;2023-07-13T02:35:47;20.20;95.10
27004;DHT22;14546;47.590;19.022;2023-07-13T02:38:14;20.20;95.30
27004;DHT22;14546;47.590;19.022;2023-07-13T02:40:39;20.20;95.40
27004;DHT22;14546;47.590;19.022;2023-07-13T02:43:05;20.30;95.60
27004;DHT22;14546;47.590;19.022;2023-07-13T02:45:31;20.30;95.60
27004;DHT22;14546;47.590;19.022;2023-07-13T02:47:57;20.30;95.50
27004;DHT22;14546;47.590;19.022;2023-07-13T02:50:23;20.30;95.40
27004;DHT22;14546;47.590;19.022;2023-07-13T02:52:49;20.30;95.50
27004;DHT22;14546;47.590;19.022;2023-07-13T02:55:15;20.30;95.40
27004;DHT22;14546;47.590;19.022;2023-07-13T02:57:41;20.30;95.40
27004;DHT22;14546;47.590;19.022;2023-07-13T03:00:10;20.30;95.30
27004;DHT22;14546;47.590;19.022;2023-07-13T03:02:36;20.30;95.30
27004;DHT22;14546;47.590;19.022;2023-07-13T03:05:03;20.30;95.60
27004;DHT22;14546;47.590;19.022;2023-07-13T03:07:30;20.30;95.20
27004;DHT22;14546;47.590;19.022;2023-07-13T03:09:56;20.30;95.20
27004;DHT22;14546;47.590;19.022;2023-07-13T03:12:24;20.30;95.10
27004;DHT22;14546;47.590;19.022;2023-07-13T03:14:50;20.30;95.10
27004;DHT22;14546;47.590;19.022;2023-07-13T03:17:16;20.30;95.20
27004;DHT22;14546;47.590;19.022;2023-07-13T03:19:43;20.30;95.30
27004;DHT22;14546;47.590;19.022;2023-07-13T03:22:10;20.30;95.40
27004;DHT22;14546;47.590;19.022;2023-07-13T03:24:35;20.30;95.40
27004;DHT22;14546;47.590;19.022;2023-07-13T03:27:04;20.30;95.40
27004;DHT22;14546;47.590;19.022;2023-07-13T03:29:30;20.30;95.40
27004;DHT22;14546;47.590;19.022;2023-07-13T03:31:56;20.30;95.50
27004;DHT22;14546;47.590;19.022;2023-07-13T03:34:21;20.40;95.60
27004;DHT22;14546;47.590;19.022;2023-07-13T03:36:48;20.30;95.50
27004;DHT22;14546;47.590;19.022;2023-07-13T03:39:13;20.30;95.60
27004;DHT22;14546;47.590;19.022;2023-07-13T03:41:39;20.40;95.70
27004;DHT22;14546;47.590;19.022;2023-07-13T03:44:06;20.40;95.90
27004;DHT22;14546;47.590;19.022;2023-07-13T03:46:34;20.40;96.00
27004;DHT22;14546;47.590;19.022;2023-07-13T03:49:01;20.50;96.10
27004;DHT22;14546;47.590;19.022;2023-07-13T03:51:27;20.50;96.20
27004;DHT22;14546;47.590;19.022;2023-07-13T03:53:53;20.60;96.20
27004;DHT22;14546;47.590;19.022;2023-07-13T03:56:19;20.60;96.30
27004;DHT22;14546;47.590;19.022;2023-07-13T03:58:47;20.70;96.30
27004;DHT22;14546;47.590;19.022;2023-07-13T04:01:15;20.70;96.20
27004;DHT22;14546;47.590;19.022;2023-07-13T04:03:41;20.80;96.20
27004;DHT22;14546;47.590;19.022;2023-07-13T04:06:18;20.80;96.20
27004;DHT22;14546;47.590;19.022;2023-07-13T04:08:48;20.90;96.20
27004;DHT22;14546;47.590;19.022;2023-07-13T04:11:16;20.90;96.10
27004;DHT22;14546;47.590;19.022;2023-07-13T04:13:41;20.90;96.00
27004;DHT22;14546;47.590;19.022;2023-07-13T04:16:07;21.00;95.90
27004;DHT22;14546;47.590;19.022;2023-07-13T04:18:33;21.00;95.80
27004;DHT22;14546;47.590;19.022;2023-07-13T04:20:59;21.00;95.80
27004;DHT22;14546;47.590;19.022;2023-07-13T04:23:25;21.00;95.80
27004;DHT22;14546;47.590;19.022;2023-07-13T04:25:52;21.00;95.70
27004;DHT22;14546;47.590;19.022;2023-07-13T04:28:23;21.00;95.70
27004;DHT22;14546;47.590;19.022;2023-07-13T04:30:49;21.00;95.70
27004;DHT22;14546;47.590;19.022;2023-07-13T04:33:16;21.00;95.60
27004;DHT22;14546;47.590;19.022;2023-07-13T04:35:43;21.00;95.60
27004;DHT22;14546;47.590;19.022;2023-07-13T04:38:11;21.10;95.70
27004;DHT22;14546;47.590;19.022;2023-07-13T04:40:37;21.10;95.80
27004;DHT22;14546;47.590;19.022;2023-07-13T04:43:05;21.00;95.80
27004;DHT22;14546;47.590;19.022;2023-07-13T04:45:31;21.00;95.80
27004;DHT22;14546;47.590;19.022;2023-07-13T04:47:56;21.00;95.70
27004;DHT22;14546;47.590;19.022;2023-07-13T04:50:22;21.10;95.60
27004;DHT22;14546;47.590;19.022;2023-07-13T04:52:51;21.00;95.50
27004;DHT22;14546;47.590;19.022;2023-07-13T04:55:19;21.00;95.30
27004;DHT22;14546;47.590;19.022;2023-07-13T04:57:45;21.00;95.30
27004;DHT22;14546;47.590;19.022;2023-07-13T05:00:12;21.00;95.30
27004;DHT22;14546;47.590;19.022;2023-07-13T05:02:39;21.00;95.30
27004;DHT22;14546;47.590;19.022;2023-07-13T05:05:06;20.90;95.10
27004;DHT22;14546;47.590;19.022;2023-07-13T05:07:32;20.80;95.00
27004;DHT22;14546;47.590;19.022;2023-07-13T05:10:00;20.70;95.00
27004;DHT22;14546;47.590;19.022;2023-07-13T05:12:26;20.70;95.30
27004;DHT22;14546;47.590;19.022;2023-07-13T05:14:53;20.60;95.70
27004;DHT22;14546;47.590;19.022;2023-07-13T05:17:18;20.50;96.20
27004;DHT22;14546;47.590;19.022;2023-07-13T05:19:46;20.40;96.50
27004;DHT22;14546;47.590;19.022;2023-07-13T05:22:12;20.30;96.80
27004;DHT22;14546;47.590;19.022;2023-07-13T05:24:39;20.30;97.20
27004;DHT22;14546;47.590;19.022;2023-07-13T05:27:06;20.20;97.50
27004;DHT22;14546;47.590;19.022;2023-07-13T05:29:33;20.10;97.70
27004;DHT22;14546;47.590;19.022;2023-07-13T05:31:58;20.00;97.90
27004;DHT22;14546;47.590;19.022;2023-07-13T05:34:24;19.90;98.30
27004;DHT22;14546;47.590;19.022;2023-07-13T05:36:51;19.80;98.70
27004;DHT22;14546;47.590;19.022;2023-07-13T05:39:18;19.70;99.10
27004;DHT22;14546;47.590;19.022;2023-07-13T05:41:45;19.60;99.50
27004;DHT22;14546;47.590;19.022;2023-07-13T05:44:10;19.60;99.80
27004;DHT22;14546;47.590;19.022;2023-07-13T05:46:37;19.50;99.90
27004;DHT22;14546;47.590;19.022;2023-07-13T05:49:03;19.50;99.90
27004;DHT22;14546;47.590;19.022;2023-07-13T05:51:29;19.40;99.90
27004;DHT22;14546;47.590;19.022;2023-07-13T05:53:55;19.40;99.90
27004;DHT22;14546;47.590;19.022;2023-07-13T05:56:21;19.30;99.90
27004;DHT22;14546;47.590;19.022;2023-07-13T05:58:48;19.20;99.90
27004;DHT22;14546;47.590;19.022;2023-07-13T06:01:15;19.20;99.90
27004;DHT22;14546;47.590;19.022;2023-07-13T06:03:42;19.10;99.90
27004;DHT22;14546;47.590;19.022;2023-07-13T06:06:09;19.10;99.90
27004;DHT22;14546;47.590;19.022;2023-07-13T06:08:36;19.10;99.90
27004;DHT22;14546;47.590;19.022;2023-07-13T06:11:15;19.00;99.90
27004;DHT22;14546;47.590;19.022;2023-07-13T06:13:42;18.90;99.90
27004;DHT22;14546;47.590;19.022;2023-07-13T06:16:08;18.90;99.90
27004;DHT22;14546;47.590;19.022;2023-07-13T06:18:36;18.90;99.90
27004;DHT22;14546;47.590;19.022;2023-07-13T06:21:10;18.90;99.90
27004;DHT22;14546;47.590;19.022;2023-07-13T06:23:37;18.90;99.90
27004;DHT22;14546;47.590;19.022;2023-07-13T06:26:04;18.80;99.90
27004;DHT22;14546;47.590;19.022;2023-07-13T06:28:30;18.80;99.90
27004;DHT22;14546;47.590;19.022;2023-07-13T06:30:57;18.70;99.90
27004;DHT22;14546;47.590;19.022;2023-07-13T06:33:24;18.70;99.90
27004;DHT22;14546;47.590;19.022;2023-07-13T06:35:49;18.70;99.90
27004;DHT22;14546;47.590;19.022;2023-07-13T06:38:16;18.70;99.90
27004;DHT22;14546;47.590;19.022;2023-07-13T06:40:42;18.80;99.90
27004;DHT22;14546;47.590;19.022;2023-07-13T06:43:07;18.90;99.90
27004;DHT22;14546;47.590;19.022;2023-07-13T06:45:42;18.90;99.90
27004;DHT22;14546;47.590;19.022;2023-07-13T06:48:07;19.00;99.90
27004;DHT22;14546;47.590;19.022;2023-07-13T06:50:34;19.00;99.90
27004;DHT22;14546;47.590;19.022;2023-07-13T06:53:00;19.10;99.90
27004;DHT22;14546;47.590;19.022;2023-07-13T06:55:26;19.20;99.90
27004;DHT22;14546;47.590;19.022;2023-07-13T06:57:52;19.30;99.90
27004;DHT22;14546;47.590;19.022;2023-07-13T07:00:18;19.40;99.90
27004;DHT22;14546;47.590;19.022;2023-07-13T07:02:43;19.50;99.90
27004;DHT22;14546;47.590;19.022;2023-07-13T07:05:10;19.60;99.90
27004;DHT22;14546;47.590;19.022;2023-07-13T07:07:35;19.70;99.90
27004;DHT22;14546;47.590;19.022;2023-07-13T07:14:56;19.90;99.90
27004;DHT22;14546;47.590;19.022;2023-07-13T07:17:23;20.30;99.90
27004;DHT22;14546;47.590;19.022;2023-07-13T07:19:48;20.50;99.90
27004;DHT22;14546;47.590;19.022;2023-07-13T07:22:14;20.60;99.90
27004;DHT22;14546;47.590;19.022;2023-07-13T07:24:40;20.60;99.90
27004;DHT22;14546;47.590;19.022;2023-07-13T07:27:05;20.70;99.90
27004;DHT22;14546;47.590;19.022;2023-07-13T07:29:31;20.80;99.90
27004;DHT22;14546;47.590;19.022;2023-07-13T08:10:57;20.80;99.90
27004;DHT22;14546;47.590;19.022;2023-07-13T08:40:13;21.40;99.90
27004;DHT22;14546;47.590;19.022;2023-07-13T08:42:45;22.60;97.70
27004;DHT22;14546;47.590;19.022;2023-07-13T08:45:22;22.70;97.20
27004;DHT22;14546;47.590;19.022;2023-07-13T08:47:56;22.80;96.50
27004;DHT22;14546;47.590;19.022;2023-07-13T08:50:29;23.00;95.70
27004;DHT22;14546;47.590;19.022;2023-07-13T08:52:56;23.10;94.30
27004;DHT22;14546;47.590;19.022;2023-07-13T08:55:29;23.20;93.80
27004;DHT22;14546;47.590;19.022;2023-07-13T16:14:23;31.20;48.00
27004;DHT22;14546;47.590;19.022;2023-07-13T16:16:50;28.50;57.70
27004;DHT22;14546;47.590;19.022;2023-07-13T16:19:21;28.30;57.40
27004;DHT22;14546;47.590;19.022;2023-07-13T16:21:54;28.20;57.50
27004;DHT22;14546;47.590;19.022;2023-07-13T16:26:50;28.10;58.00
27004;DHT22;14546;47.590;19.022;2023-07-13T16:29:21;28.00;57.30
27004;DHT22;14546;47.590;19.022;2023-07-13T17:16:40;27.90;57.30
27004;DHT22;14546;47.590;19.022;2023-07-13T17:19:15;26.70;64.30
27004;DHT22;14546;47.590;19.022;2023-07-13T17:21:43;26.50;65.50
27004;DHT22;14546;47.590;19.022;2023-07-13T17:24:16;26.40;65.90
27004;DHT22;14546;47.590;19.022;2023-07-13T17:26:45;26.30;66.70
27004;DHT22;14546;47.590;19.022;2023-07-13T17:29:11;26.20;67.00
27004;DHT22;14546;47.590;19.022;2023-07-13T17:31:37;26.20;67.40
27004;DHT22;14546;47.590;19.022;2023-07-13T17:34:03;26.10;67.70
27004;DHT22;14546;47.590;19.022;2023-07-13T17:46:29;26.00;68.00
27004;DHT22;14546;47.590;19.022;2023-07-13T17:48:56;25.80;66.40
27004;DHT22;14546;47.590;19.022;2023-07-13T17:51:24;25.70;65.00
27004;DHT22;14546;47.590;19.022;2023-07-13T17:53:53;25.60;64.20
27004;DHT22;14546;47.590;19.022;2023-07-13T17:56:21;25.70;63.60
27004;DHT22;14546;47.590;19.022;2023-07-13T17:58:49;25.70;63.70
27004;DHT22;14546;47.590;19.022;2023-07-13T18:01:19;25.60;63.40
27004;DHT22;14546;47.590;19.022;2023-07-13T18:03:47;25.60;63.50
27004;DHT22;14546;47.590;19.022;2023-07-13T18:06:26;25.50;63.70
27004;DHT22;14546;47.590;19.022;2023-07-13T18:08:57;25.50;64.10
27004;DHT22;14546;47.590;19.022;2023-07-13T18:11:24;25.50;64.40
27004;DHT22;14546;47.590;19.022;2023-07-13T18:28:37;25.40;64.20
27004;DHT22;14546;47.590;19.022;2023-07-13T18:31:04;25.10;62.80
27004;DHT22;14546;47.590;19.022;2023-07-13T18:33:31;25.10;63.20
27004;DHT22;14546;47.590;19.022;2023-07-13T18:36:00;25.00;63.00
27004;DHT22;14546;47.590;19.022;2023-07-13T18:38:30;25.00;63.00
27004;DHT22;14546;47.590;19.022;2023-07-13T18:40:57;25.00;63.20
27004;DHT22;14546;47.590;19.022;2023-07-13T18:43:24;24.90;63.50
27004;DHT22;14546;47.590;19.022;2023-07-13T18:46:00;24.90;63.80
27004;DHT22;14546;47.590;19.022;2023-07-13T18:48:31;24.90;64.40
27004;DHT22;14546;47.590;19.022;2023-07-13T18:50:58;24.80;64.40
27004;DHT22;14546;47.590;19.022;2023-07-13T18:53:24;24.80;64.70
27004;DHT22;14546;47.590;19.022;2023-07-13T18:55:52;24.70;65.20
27004;DHT22;14546;47.590;19.022;2023-07-13T18:58:18;24.70;65.40
27004;DHT22;14546;47.590;19.022;2023-07-13T19:00:49;24.60;65.70
27004;DHT22;14546;47.590;19.022;2023-07-13T19:03:17;24.50;66.10
27004;DHT22;14546;47.590;19.022;2023-07-13T19:05:45;24.40;66.60
27004;DHT22;14546;47.590;19.022;2023-07-13T19:08:22;24.30;66.30
27004;DHT22;14546;47.590;19.022;2023-07-13T19:10:51;24.20;67.00
27004;DHT22;14546;47.590;19.022;2023-07-13T19:13:21;24.10;67.10
27004;DHT22;14546;47.590;19.022;2023-07-13T19:15:48;24.00;67.50
27004;DHT22;14546;47.590;19.022;2023-07-13T19:18:17;23.90;67.70
27004;DHT22;14546;47.590;19.022;2023-07-13T19:20:48;23.80;67.90
27004;DHT22;14546;47.590;19.022;2023-07-13T19:26:03;23.70;68.00
27004;DHT22;14546;47.590;19.022;2023-07-13T19:28:39;23.60;68.00
27004;DHT22;14546;47.590;19.022;2023-07-13T19:31:17;23.60;68.00
27004;DHT22;14546;47.590;19.022;2023-07-13T19:33:43;23.60;68.20
27004;DHT22;14546;47.590;19.022;2023-07-13T19:36:15;23.50;68.20
27004;DHT22;14546;47.590;19.022;2023-07-13T19:38:42;23.50;68.40
27004;DHT22;14546;47.590;19.022;2023-07-13T19:41:16;23.40;68.60
27004;DHT22;14546;47.590;19.022;2023-07-13T19:43:44;23.40;68.50
27004;DHT22;14546;47.590;19.022;2023-07-13T19:46:32;23.30;68.60
27004;DHT22;14546;47.590;19.022;2023-07-13T19:49:00;23.30;69.40
27004;DHT22;14546;47.590;19.022;2023-07-13T19:51:32;23.30;69.70
27004;DHT22;14546;47.590;19.022;2023-07-13T19:54:01;23.30;70.20
27004;DHT22;14546;47.590;19.022;2023-07-13T19:56:28;23.30;70.90
27004;DHT22;14546;47.590;19.022;2023-07-13T19:58:54;23.30;71.50
27004;DHT22;14546;47.590;19.022;2023-07-13T20:01:21;23.30;72.00
27004;DHT22;14546;47.590;19.022;2023-07-13T20:03:47;23.40;72.60
27004;DHT22;14546;47.590;19.022;2023-07-13T20:06:29;23.30;73.00
27004;DHT22;14546;47.590;19.022;2023-07-13T20:08:59;23.40;73.90
27004;DHT22;14546;47.590;19.022;2023-07-13T20:11:26;23.30;74.20
27004;DHT22;14546;47.590;19.022;2023-07-13T20:13:53;23.30;74.90
27004;DHT22;14546;47.590;19.022;2023-07-13T20:16:20;23.30;75.30
27004;DHT22;14546;47.590;19.022;2023-07-13T20:18:48;23.30;75.60
27004;DHT22;14546;47.590;19.022;2023-07-13T20:21:15;23.30;75.80
27004;DHT22;14546;47.590;19.022;2023-07-13T20:23:42;23.40;76.30
27004;DHT22;14546;47.590;19.022;2023-07-13T20:26:09;23.30;76.80
27004;DHT22;14546;47.590;19.022;2023-07-13T20:28:36;23.30;76.90
27004;DHT22;14546;47.590;19.022;2023-07-13T20:31:08;23.30;77.00
27004;DHT22;14546;47.590;19.022;2023-07-13T20:33:35;23.30;76.30
27004;DHT22;14546;47.590;19.022;2023-07-13T20:36:05;23.40;75.40
27004;DHT22;14546;47.590;19.022;2023-07-13T20:38:32;23.20;74.30
27004;DHT22;14546;47.590;19.022;2023-07-13T20:40:58;23.40;73.40
27004;DHT22;14546;47.590;19.022;2023-07-13T21:13:06;23.20;73.20
27004;DHT22;14546;47.590;19.022;2023-07-13T21:15:36;23.20;71.60
27004;DHT22;14546;47.590;19.022;2023-07-13T21:18:03;23.10;71.60
27004;DHT22;14546;47.590;19.022;2023-07-13T21:20:29;23.10;71.70
27004;DHT22;14546;47.590;19.022;2023-07-13T21:22:55;23.00;71.90
27004;DHT22;14546;47.590;19.022;2023-07-13T21:25:24;23.00;72.10
